Time;durP1;ratioP1;P1;durP2;ratioP2;P2;SDS_P1;SDS_P2;PMS_P1;PMS_P2;Temp;Humidity;BMP_temperature;BMP_pressure;BME280_temperature;BME280_humidity;BME280_pressure;Samples;Min_cycle;Max_cycle;Signal;HPM_P1;HPM_P2
2023/05/16 00:00:25;;;;;;;16.63;1.60;;;10.90;94.30;;;;;;5038622;28;20040;-90
2023/05/16 00:02:51;;;;;;;17.63;2.17;;;10.80;94.30;;;;;;5056126;28;20108;-89
2023/05/16 00:05:17;;;;;;;11.90;1.80;;;10.80;94.20;;;;;;5057972;28;20021;-90
2023/05/16 00:07:44;;;;;;;11.10;1.67;;;10.80;94.20;;;;;;5041220;28;20457;-88
2023/05/16 00:10:10;;;;;;;12.90;2.30;;;10.80;94.20;;;;;;5056688;28;20041;-92
2023/05/16 00:12:38;;;;;;;15.40;3.13;;;10.80;94.10;;;;;;5055741;28;20028;-90
2023/05/16 00:15:05;;;;;;;13.00;1.77;;;10.80;94.10;;;;;;5054728;28;20461;-91
2023/05/16 00:17:31;;;;;;;15.47;2.37;;;10.80;94.00;;;;;;5055861;28;20033;-89
2023/05/16 00:19:57;;;;;;;8.47;1.70;;;10.70;93.90;;;;;;5055674;28;20350;-91
2023/05/16 00:22:26;;;;;;;14.47;1.43;;;10.70;93.90;;;;;;5054828;28;20061;-90
2023/05/16 00:24:52;;;;;;;11.53;1.30;;;10.70;93.80;;;;;;5037894;28;20094;-91
2023/05/16 00:27:17;;;;;;;11.23;1.70;;;10.60;93.80;;;;;;5054687;28;20017;-89
2023/05/16 00:29:43;;;;;;;13.00;1.63;;;10.60;93.80;;;;;;5037729;28;20031;-91
2023/05/16 00:32:08;;;;;;;12.60;2.23;;;10.50;93.70;;;;;;5054528;28;20059;-91
2023/05/16 00:34:34;;;;;;;13.07;1.70;;;10.50;93.70;;;;;;5054905;28;20049;-91
2023/05/16 00:37:00;;;;;;;14.40;1.63;;;10.50;93.60;;;;;;5054379;28;20063;-92
2023/05/16 00:39:26;;;;;;;10.37;2.13;;;10.40;93.60;;;;;;5054986;28;20420;-91
2023/05/16 00:41:52;;;;;;;12.33;1.70;;;10.40;93.60;;;;;;5056710;28;20024;-91
2023/05/16 00:44:18;;;;;;;8.93;1.37;;;10.30;93.50;;;;;;5055928;28;20334;-90
2023/05/16 00:46:43;;;;;;;12.23;1.53;;;10.30;93.50;;;;;;5054525;28;20024;-91
2023/05/16 00:49:09;;;;;;;15.27;1.57;;;10.30;93.50;;;;;;5058661;28;20078;-91
2023/05/16 00:51:37;;;;;;;10.93;1.60;;;10.20;93.40;;;;;;5061579;28;20025;-90
2023/05/16 00:54:04;;;;;;;10.17;1.27;;;10.20;93.40;;;;;;5060371;28;20017;-90
2023/05/16 00:56:30;;;;;;;13.60;1.73;;;10.20;93.40;;;;;;5041145;28;20017;-90
2023/05/16 00:58:56;;;;;;;17.13;2.03;;;10.20;93.30;;;;;;5038757;28;20102;-90
2023/05/16 01:01:24;;;;;;;9.93;1.40;;;10.10;93.30;;;;;;5055561;28;20399;-89
2023/05/16 01:03:50;;;;;;;13.57;1.53;;;10.10;93.20;;;;;;5053649;28;20028;-90
2023/05/16 01:06:16;;;;;;;9.93;1.43;;;10.00;93.20;;;;;;5053806;28;20029;-92
2023/05/16 01:08:42;;;;;;;13.40;1.23;;;10.00;93.20;;;;;;5053980;28;20048;-89
2023/05/16 01:11:31;;;;;;;9.03;1.10;;;10.00;93.20;;;;;;5054301;28;20033;-89
2023/05/16 01:14:16;;;;;;;8.37;1.10;;;9.90;93.20;;;;;;5050867;28;20040;-88
2023/05/16 01:17:11;;;;;;;10.37;1.07;;;9.90;93.20;;;;;;5053686;28;20027;-89
2023/05/16 01:20:14;;;;;;;10.80;1.77;;;9.90;93.20;;;;;;5054004;28;20461;-89
2023/05/16 01:22:42;;;;;;;10.63;1.20;;;9.80;93.20;;;;;;5050034;28;20033;-90
2023/05/16 01:25:17;;;;;;;11.87;1.17;;;9.80;93.20;;;;;;5054677;28;20032;-88
2023/05/16 01:27:44;;;;;;;11.87;1.27;;;9.70;93.20;;;;;;5053535;28;20036;-91
2023/05/16 01:30:18;;;;;;;9.27;1.40;;;9.70;93.30;;;;;;5053386;28;20457;-89
2023/05/16 01:32:44;;;;;;;;;;;9.60;93.30;;;;;;5053567;28;20020;-88
2023/05/16 01:35:12;;;;;;;9.17;1.20;;;9.60;93.30;;;;;;5087096;28;20265;-89
2023/05/16 01:37:53;;;;;;;9.10;1.10;;;9.50;93.30;;;;;;5053953;28;20047;-89
2023/05/16 01:40:41;;;;;;;14.70;1.90;;;9.50;93.30;;;;;;5054547;28;20013;-89
2023/05/16 01:43:12;;;;;;;8.67;1.17;;;9.40;93.50;;;;;;5049962;28;20072;-93
2023/05/16 01:45:46;;;;;;;13.17;1.53;;;9.40;93.60;;;;;;5055269;28;20028;-92
2023/05/16 01:48:23;;;;;;;14.63;1.70;;;9.30;93.80;;;;;;5058067;28;20055;-92
2023/05/16 01:50:55;;;;;;;10.40;1.70;;;9.30;94.00;;;;;;5059776;28;20082;-91
2023/05/16 01:53:37;;;;;;;10.67;1.57;;;9.20;94.10;;;;;;5058268;28;20013;-92
2023/05/16 01:56:06;;;;;;;15.07;1.53;;;9.10;94.20;;;;;;5058277;28;20016;-90
2023/05/16 01:58:34;;;;;;;7.07;1.03;;;9.10;94.30;;;;;;5042007;28;20036;-89
2023/05/16 02:01:04;;;;;;;14.87;1.20;;;9.00;94.40;;;;;;5059633;28;20041;-90
2023/05/16 02:03:30;;;;;;;11.37;1.80;;;9.00;94.70;;;;;;5058198;28;20031;-82
2023/05/16 02:05:57;;;;;;;11.80;1.40;;;8.90;94.80;;;;;;5057458;28;20477;-91
2023/05/16 02:08:23;;;;;;;11.03;1.40;;;8.90;95.00;;;;;;5057369;28;20086;-90
2023/05/16 02:10:49;;;;;;;12.67;1.63;;;8.80;95.10;;;;;;5058257;28;20029;-87
2023/05/16 02:13:15;;;;;;;12.47;1.83;;;8.80;95.30;;;;;;5059131;28;20029;-90
2023/05/16 02:15:40;;;;;;;10.40;1.87;;;8.80;95.50;;;;;;5057334;28;20036;-90
2023/05/16 02:18:06;;;;;;;10.87;1.20;;;8.70;95.60;;;;;;5040824;28;20048;-92
2023/05/16 02:20:32;;;;;;;13.63;1.33;;;8.70;95.60;;;;;;5057223;28;20176;-90
2023/05/16 02:22:58;;;;;;;12.33;1.53;;;8.70;95.80;;;;;;5058202;28;20025;-89
2023/05/16 02:25:24;;;;;;;10.43;2.00;;;8.60;96.00;;;;;;5057884;28;20049;-89
2023/05/16 02:27:49;;;;;;;13.37;1.40;;;8.60;96.20;;;;;;5056816;28;20032;-90
2023/05/16 02:30:15;;;;;;;12.17;2.50;;;8.60;96.40;;;;;;5057810;28;20026;-88
2023/05/16 02:32:43;;;;;;;12.10;1.90;;;8.60;96.50;;;;;;5056423;28;20112;-89
2023/05/16 02:35:10;;;;;;;10.57;1.40;;;8.60;96.60;;;;;;5055903;28;20024;-88
2023/05/16 02:37:36;;;;;;;9.77;1.37;;;8.50;96.60;;;;;;5056648;28;20110;-91
2023/05/16 02:40:06;;;;;;;10.13;1.60;;;8.50;96.70;;;;;;5057312;28;20052;-89
2023/05/16 02:42:32;;;;;;;8.40;1.73;;;8.50;97.10;;;;;;5040689;28;20032;-89
2023/05/16 02:44:57;;;;;;;15.43;2.33;;;8.50;97.20;;;;;;5056494;28;20112;-90
2023/05/16 02:47:23;;;;;;;12.27;1.70;;;8.50;97.50;;;;;;5056897;28;20100;-88
2023/05/16 02:49:51;;;;;;;13.23;1.50;;;8.50;97.60;;;;;;5057535;28;20021;-89
2023/05/16 02:52:17;;;;;;;11.07;1.67;;;8.50;97.70;;;;;;5057782;28;20154;-90
2023/05/16 02:54:42;;;;;;;8.57;1.00;;;8.50;97.70;;;;;;5055924;28;20032;-87
2023/05/16 02:57:08;;;;;;;12.20;1.30;;;8.50;97.70;;;;;;5056302;28;20040;-89
2023/05/16 02:59:35;;;;;;;12.40;1.13;;;8.50;97.70;;;;;;5056164;28;20021;-88
2023/05/16 03:02:00;;;;;;;10.90;1.50;;;8.50;97.70;;;;;;5056301;28;20349;-90
2023/05/16 03:04:26;;;;;;;9.43;1.70;;;8.50;97.50;;;;;;5040364;28;20025;-91
2023/05/16 03:06:52;;;;;;;8.40;1.60;;;8.50;97.50;;;;;;5059167;28;20025;-90
2023/05/16 03:09:18;;;;;;;13.93;2.27;;;8.50;97.50;;;;;;5058390;28;20080;-88
2023/05/16 03:11:44;;;;;;;12.80;1.17;;;8.50;97.60;;;;;;5058466;28;20071;-90
2023/05/16 03:14:11;;;;;;;11.47;1.40;;;8.50;97.80;;;;;;5057173;28;20027;-88
2023/05/16 03:16:37;;;;;;;16.50;1.63;;;8.50;98.00;;;;;;5044107;28;20021;-91
2023/05/16 03:19:03;;;;;;;11.93;1.43;;;8.60;98.10;;;;;;5058838;28;20041;-90
2023/05/16 03:21:30;;;;;;;15.90;1.43;;;8.60;98.10;;;;;;5040126;28;20028;-92
2023/05/16 03:23:57;;;;;;;15.53;1.30;;;8.60;98.20;;;;;;5056254;28;20017;-88
2023/05/16 03:26:23;;;;;;;8.27;0.97;;;8.60;98.20;;;;;;5055748;28;20449;-88
2023/05/16 03:28:50;;;;;;;13.63;2.00;;;8.60;98.30;;;;;;5038714;28;20036;-89
2023/05/16 03:31:16;;;;;;;10.93;1.37;;;8.60;98.20;;;;;;5048013;28;20036;-89
2023/05/16 03:33:42;;;;;;;10.77;1.50;;;8.60;98.10;;;;;;5054577;28;20052;-90
2023/05/16 03:36:08;;;;;;;8.77;1.50;;;8.60;98.00;;;;;;5054737;28;20457;-88
2023/05/16 03:38:34;;;;;;;7.13;1.10;;;8.60;98.00;;;;;;5054232;28;20071;-89
2023/05/16 03:41:00;;;;;;;11.20;1.50;;;8.60;98.10;;;;;;5055128;28;20056;-89
2023/05/16 03:43:26;;;;;;;8.77;1.43;;;8.60;98.20;;;;;;5038862;28;20051;-89
2023/05/16 03:45:51;;;;;;;9.67;1.30;;;8.60;98.20;;;;;;5055436;28;20105;-88
2023/05/16 03:48:17;;;;;;;9.33;1.30;;;8.60;98.30;;;;;;5055251;28;20020;-86
2023/05/16 03:50:43;;;;;;;14.60;1.30;;;8.60;98.30;;;;;;5038338;28;20028;-90
2023/05/16 03:53:09;;;;;;;7.13;1.37;;;8.60;98.30;;;;;;5055292;28;20099;-92
2023/05/16 03:55:34;;;;;;;9.13;1.27;;;8.60;98.40;;;;;;5056989;28;20033;-91
2023/05/16 03:58:00;;;;;;;14.33;1.60;;;8.60;98.40;;;;;;5055552;28;20065;-90
2023/05/16 04:00:26;;;;;;;11.73;1.37;;;8.60;98.40;;;;;;5056708;28;20025;-90
2023/05/16 04:02:52;;;;;;;12.10;1.40;;;8.60;98.50;;;;;;5057663;28;20084;-91
2023/05/16 04:05:17;;;;;;;10.87;1.47;;;8.70;98.60;;;;;;5040004;28;20043;-90
2023/05/16 04:07:43;;;;;;;8.03;1.37;;;8.70;98.60;;;;;;5057958;28;20033;-88
2023/05/16 04:10:09;;;;;;;9.50;1.37;;;8.70;98.90;;;;;;5056203;28;20048;-91
2023/05/16 04:12:35;;;;;;;7.63;1.07;;;8.80;98.90;;;;;;5059726;28;20063;-90
2023/05/16 04:15:05;;;;;;;7.80;1.23;;;8.80;99.10;;;;;;5073372;28;20021;-82
2023/05/16 04:17:31;;;;;;;12.70;1.67;;;8.90;99.30;;;;;;5072034;28;20116;-92
2023/05/16 04:19:57;;;;;;;7.07;1.30;;;8.90;99.30;;;;;;5056654;28;20021;-90
2023/05/16 04:22:23;;;;;;;12.07;2.17;;;9.00;99.30;;;;;;5056440;28;20096;-90
2023/05/16 04:24:49;;;;;;;7.83;1.43;;;9.00;99.30;;;;;;5044704;28;20032;-90
2023/05/16 04:27:15;;;;;;;9.33;1.10;;;9.00;99.20;;;;;;5055225;28;20373;-90
2023/05/16 04:29:41;;;;;;;15.87;1.60;;;9.10;99.30;;;;;;5054881;28;20103;-89
2023/05/16 04:32:07;;;;;;;11.97;1.13;;;9.00;99.20;;;;;;5038498;28;20094;-92
2023/05/16 04:34:36;;;;;;;10.90;1.27;;;9.00;99.20;;;;;;5038269;28;20027;-92
2023/05/16 04:37:04;;;;;;;7.83;1.63;;;9.00;99.20;;;;;;5055062;28;20080;-94
2023/05/16 04:39:29;;;;;;;7.47;1.33;;;9.00;99.00;;;;;;5055908;28;20041;-92
2023/05/16 04:41:58;;;;;;;10.13;1.20;;;9.00;99.00;;;;;;5038861;28;20021;-91
2023/05/16 04:44:24;;;;;;;14.87;1.93;;;9.00;99.00;;;;;;5055863;28;20021;-90
2023/05/16 04:46:50;;;;;;;12.90;1.30;;;9.00;99.00;;;;;;5059984;28;20096;-90
2023/05/16 04:49:15;;;;;;;8.43;1.30;;;9.00;99.10;;;;;;5038421;28;20048;-87
2023/05/16 04:51:41;;;;;;;10.37;1.57;;;9.00;99.10;;;;;;5054009;28;20025;-89
2023/05/16 04:54:07;;;;;;;11.63;1.73;;;9.00;99.10;;;;;;5054294;28;20036;-90
2023/05/16 04:56:33;;;;;;;8.00;1.63;;;9.10;99.10;;;;;;5038321;28;20053;-90
2023/05/16 04:58:59;;;;;;;16.40;1.40;;;9.10;99.10;;;;;;5053740;28;20075;-91
2023/05/16 05:01:24;;;;;;;14.33;2.00;;;9.10;99.30;;;;;;5038901;28;20025;-93
2023/05/16 05:03:51;;;;;;;10.20;1.90;;;9.00;99.00;;;;;;5038149;28;20032;-94
2023/05/16 05:06:16;;;;;;;15.93;1.70;;;9.00;99.00;;;;;;5071507;28;20025;-90
2023/05/16 05:08:42;;;;;;;6.13;1.07;;;9.00;99.00;;;;;;5037614;28;20051;-91
2023/05/16 05:11:07;;;;;;;11.00;1.63;;;9.00;98.90;;;;;;5037610;28;20375;-90
2023/05/16 05:13:33;;;;;;;9.33;1.87;;;9.00;98.90;;;;;;5054848;28;20409;-91
2023/05/16 05:16:00;;;;;;;8.40;1.50;;;8.90;98.90;;;;;;5056211;28;20032;-90
2023/05/16 05:18:26;;;;;;;11.83;2.13;;;8.90;99.00;;;;;;5039017;28;20040;-90
2023/05/16 05:20:52;;;;;;;12.27;2.37;;;9.00;99.00;;;;;;5036574;28;20018;-90
2023/05/16 05:23:18;;;;;;;8.97;1.30;;;8.90;99.00;;;;;;5031641;28;20014;-90
2023/05/16 05:25:44;;;;;;;13.43;2.33;;;9.00;99.10;;;;;;5038143;28;20029;-88
2023/05/16 05:28:10;;;;;;;10.10;1.53;;;9.00;99.20;;;;;;5041235;28;20025;-90
2023/05/16 05:30:36;;;;;;;8.77;1.83;;;9.10;99.20;;;;;;5031384;28;20067;-90
2023/05/16 05:33:02;;;;;;;12.00;1.33;;;9.20;99.20;;;;;;5020409;28;20021;-89
2023/05/16 05:35:28;;;;;;;11.93;1.43;;;9.20;99.20;;;;;;5050998;28;20492;-89
2023/05/16 05:37:53;;;;;;;13.00;1.87;;;9.30;99.10;;;;;;5042911;28;20041;-90
2023/05/16 05:40:19;;;;;;;9.03;1.40;;;9.40;99.10;;;;;;5035983;28;20484;-92
2023/05/16 05:42:45;;;;;;;12.27;1.53;;;9.40;99.10;;;;;;5015698;28;20033;-88
2023/05/16 05:45:10;;;;;;;12.53;1.90;;;9.50;99.00;;;;;;5032088;28;20034;-83
2023/05/16 05:47:39;;;;;;;9.93;2.03;;;9.50;98.80;;;;;;5015074;28;20033;-84
2023/05/16 05:50:06;;;;;;;17.33;1.80;;;9.60;98.70;;;;;;5015268;28;20528;-84
2023/05/16 05:52:31;;;;;;;12.97;1.87;;;9.60;98.50;;;;;;5032116;28;20075;-84
2023/05/16 05:54:58;;;;;;;9.93;1.80;;;9.60;98.40;;;;;;5015486;28;20021;-88
2023/05/16 05:57:23;;;;;;;12.07;1.70;;;9.60;98.30;;;;;;5049042;28;20026;-87
2023/05/16 05:59:49;;;;;;;8.40;1.23;;;9.70;98.40;;;;;;5032958;28;20055;-88
2023/05/16 06:02:15;;;;;;;11.50;1.50;;;9.70;98.40;;;;;;5016260;28;20606;-87
2023/05/16 06:04:41;;;;;;;14.43;2.30;;;9.70;98.50;;;;;;5016148;28;20065;-87
2023/05/16 06:07:07;;;;;;;7.93;1.23;;;9.70;98.50;;;;;;5048432;28;20117;-86
2023/05/16 06:09:32;;;;;;;12.60;1.20;;;9.80;98.60;;;;;;5015384;28;20500;-86
2023/05/16 06:11:58;;;;;;;9.83;1.20;;;9.80;98.60;;;;;;5014945;28;20374;-87
2023/05/16 06:14:24;;;;;;;10.37;1.00;;;9.90;98.60;;;;;;5051754;28;20033;-87
2023/05/16 06:16:50;;;;;;;6.57;1.20;;;10.00;98.60;;;;;;5038291;28;20033;-88
2023/05/16 06:19:17;;;;;;;7.47;1.23;;;10.00;98.60;;;;;;5071323;28;20083;-88
2023/05/16 06:21:43;;;;;;;10.20;1.40;;;10.00;98.50;;;;;;5033663;28;20025;-89
2023/05/16 06:24:09;;;;;;;10.27;1.07;;;10.10;98.50;;;;;;5032468;28;20100;-88
2023/05/16 06:26:35;;;;;;;8.10;1.13;;;10.20;98.40;;;;;;5015393;28;20022;-88
2023/05/16 06:29:01;;;;;;;12.83;1.40;;;10.20;98.40;;;;;;5016481;28;20025;-89
2023/05/16 06:31:26;;;;;;;9.30;1.20;;;10.30;98.30;;;;;;5016240;28;20018;-88
2023/05/16 06:33:52;;;;;;;9.50;1.10;;;10.40;98.20;;;;;;5033699;28;20075;-89
2023/05/16 06:36:18;;;;;;;10.13;1.27;;;10.40;98.20;;;;;;5036110;28;20022;-89
2023/05/16 06:38:44;;;;;;;7.27;0.90;;;10.50;98.10;;;;;;5036415;28;20041;-88
2023/05/16 06:41:10;;;;;;;11.97;1.23;;;10.50;98.00;;;;;;5035978;28;20102;-90
2023/05/16 06:43:35;;;;;;;7.53;0.98;;;10.60;97.90;;;;;;5038776;28;20021;-88
2023/05/16 06:46:02;;;;;;;7.97;1.00;;;10.70;97.70;;;;;;5037454;28;20025;-87
2023/05/16 06:48:28;;;;;;;7.22;1.10;;;10.70;97.50;;;;;;5020521;28;20025;-87
2023/05/16 06:50:54;;;;;;;7.05;1.10;;;10.80;97.30;;;;;;5036253;28;20026;-88
2023/05/16 06:53:20;;;;;;;7.70;0.98;;;10.90;97.10;;;;;;5036767;28;20029;-90
2023/05/16 06:55:46;;;;;;;6.63;1.00;;;11.00;97.00;;;;;;5019359;28;20048;-89
2023/05/16 06:58:11;;;;;;;10.80;1.08;;;11.00;96.90;;;;;;5037307;28;20033;-90
2023/05/16 07:00:37;;;;;;;7.40;1.00;;;11.10;96.80;;;;;;5035885;28;20071;-89
2023/05/16 07:03:03;;;;;;;6.95;1.13;;;11.20;96.60;;;;;;5019546;28;20048;-89
2023/05/16 07:05:29;;;;;;;6.95;0.95;;;11.30;96.40;;;;;;5035236;28;20045;-88
2023/05/16 07:07:55;;;;;;;5.78;1.13;;;11.40;96.30;;;;;;5035925;28;20014;-88
2023/05/16 07:10:21;;;;;;;5.65;0.60;;;11.60;96.20;;;;;;5036425;28;20041;-88
2023/05/16 07:12:47;;;;;;;6.35;0.70;;;11.60;96.00;;;;;;5035871;28;20017;-87
2023/05/16 07:15:13;;;;;;;6.82;0.60;;;11.80;95.80;;;;;;5019702;28;20029;-88
2023/05/16 07:17:39;;;;;;;5.40;0.55;;;11.80;95.50;;;;;;5019026;28;20469;-89
2023/05/16 07:20:06;;;;;;;4.88;0.75;;;11.90;95.20;;;;;;5035476;28;20029;-88
2023/05/16 07:22:31;;;;;;;6.80;0.70;;;12.00;94.90;;;;;;5019036;28;20060;-87
2023/05/16 07:25:00;;;;;;;4.75;0.60;;;12.10;94.60;;;;;;5018977;28;20026;-86
2023/05/16 07:27:26;;;;;;;4.63;0.60;;;12.10;94.30;;;;;;5020242;28;20025;-88
2023/05/16 07:29:52;;;;;;;8.80;0.70;;;12.40;94.00;;;;;;5038584;28;20032;-89
2023/05/16 07:32:18;;;;;;;4.57;0.50;;;12.50;93.60;;;;;;5019747;28;20022;-89
2023/05/16 07:34:43;;;;;;;5.32;0.43;;;12.60;93.00;;;;;;5035954;28;20013;-89
2023/05/16 07:37:11;;;;;;;3.75;0.50;;;12.60;92.50;;;;;;5036615;28;20029;-89
2023/05/16 07:39:38;;;;;;;5.25;0.73;;;12.80;91.90;;;;;;5026471;28;20087;-89
2023/05/16 07:42:06;;;;;;;4.97;0.68;;;12.80;91.50;;;;;;5047689;28;20030;-90
2023/05/16 07:44:31;;;;;;;5.28;0.60;;;12.90;91.00;;;;;;5027931;28;20026;-91
2023/05/16 07:46:57;;;;;;;4.05;0.40;;;12.90;90.70;;;;;;5039071;28;20083;-90
2023/05/16 07:49:23;;;;;;;3.33;0.50;;;13.00;90.10;;;;;;5037066;28;20029;-90
2023/05/16 07:51:48;;;;;;;5.10;0.45;;;13.10;89.70;;;;;;5036815;28;20022;-88
2023/05/16 07:54:14;;;;;;;4.60;0.70;;;13.10;88.90;;;;;;5018984;28;20048;-88
2023/05/16 07:56:40;;;;;;;4.30;0.40;;;13.10;88.20;;;;;;5018969;28;20121;-89
2023/05/16 07:59:06;;;;;;;1.88;0.30;;;13.20;87.70;;;;;;5036123;28;20060;-89
2023/05/16 08:01:31;;;;;;;6.80;0.38;;;13.20;87.10;;;;;;5036263;28;20083;-91
2023/05/16 08:03:57;;;;;;;6.18;0.70;;;13.30;86.60;;;;;;5018641;28;20032;-90
2023/05/16 08:06:23;;;;;;;4.15;0.40;;;13.40;86.10;;;;;;5018584;28;20496;-86
2023/05/16 08:08:48;;;;;;;2.75;0.30;;;13.50;85.50;;;;;;5034970;28;20072;-90
2023/05/16 08:11:14;;;;;;;5.53;0.40;;;13.60;84.80;;;;;;5036779;28;20051;-89
2023/05/16 08:13:40;;;;;;;3.25;0.60;;;13.60;84.30;;;;;;5020481;28;20051;-90
2023/05/16 08:16:06;;;;;;;7.25;0.52;;;13.60;83.90;;;;;;5035614;28;20021;-88
2023/05/16 08:18:32;;;;;;;5.10;0.57;;;13.60;83.30;;;;;;5035215;28;20049;-90
2023/05/16 08:20:58;;;;;;;2.75;0.50;;;13.60;82.60;;;;;;5034725;28;20063;-89
2023/05/16 08:23:23;;;;;;;5.57;0.82;;;13.60;81.80;;;;;;5034704;28;20036;-89
2023/05/16 08:25:49;;;;;;;3.20;0.47;;;13.60;81.60;;;;;;5018286;28;20068;-88
2023/05/16 08:28:15;;;;;;;5.82;0.60;;;13.50;81.40;;;;;;5035954;28;20030;-89
2023/05/16 08:30:41;;;;;;;4.85;0.63;;;13.60;81.40;;;;;;5036077;28;20029;-88
2023/05/16 08:33:07;;;;;;;2.65;0.30;;;13.60;81.20;;;;;;5067995;28;20017;-90
2023/05/16 08:35:34;;;;;;;2.80;0.35;;;13.70;80.90;;;;;;5034703;28;20522;-90
2023/05/16 08:38:01;;;;;;;2.72;0.40;;;13.70;80.80;;;;;;5034637;28;20666;-89
2023/05/16 08:40:27;;;;;;;3.28;0.20;;;13.80;80.60;;;;;;5035382;28;20025;-89
2023/05/16 08:42:53;;;;;;;3.33;0.30;;;13.80;80.60;;;;;;5036064;28;20051;-90
2023/05/16 08:45:19;;;;;;;1.60;0.20;;;13.80;80.20;;;;;;5034756;28;20056;-90
2023/05/16 08:47:49;;;;;;;3.72;0.45;;;13.90;80.00;;;;;;5017980;28;20380;-91
2023/05/16 08:50:15;;;;;;;2.72;0.30;;;13.90;79.40;;;;;;5017942;28;20053;-90
2023/05/16 08:52:43;;;;;;;1.92;0.20;;;14.00;79.20;;;;;;5035683;28;20022;-90
2023/05/16 08:55:10;;;;;;;2.17;0.20;;;14.10;78.90;;;;;;5034074;28;20017;-91
2023/05/16 08:57:36;;;;;;;1.83;0.20;;;14.10;78.20;;;;;;5034436;28;20032;-89
2023/05/16 09:00:10;;;;;;;2.08;0.20;;;14.20;77.80;;;;;;5035642;28;20022;-89
2023/05/16 09:02:38;;;;;;;3.13;0.30;;;14.20;77.30;;;;;;5067188;28;20032;-91
2023/05/16 09:05:04;;;;;;;2.50;0.40;;;14.30;77.30;;;;;;5034623;28;20022;-89
2023/05/16 09:07:30;;;;;;;3.50;0.32;;;14.30;76.70;;;;;;5017757;28;20086;-89
2023/05/16 09:09:56;;;;;;;3.38;0.50;;;14.30;76.10;;;;;;5034002;28;20140;-85
2023/05/16 09:12:21;;;;;;;5.97;0.45;;;14.40;75.60;;;;;;5033966;28;20029;-89
2023/05/16 09:14:47;;;;;;;1.67;0.30;;;14.30;75.30;;;;;;5018746;28;20028;-90
2023/05/16 09:17:14;;;;;;;3.78;0.40;;;14.40;74.90;;;;;;5034362;28;20168;-90
2023/05/16 09:19:41;;;;;;;4.07;0.43;;;14.40;74.80;;;;;;5034404;28;20099;-87
2023/05/16 09:22:12;;;;;;;3.35;0.55;;;14.50;74.40;;;;;;5018799;28;20021;-91
2023/05/16 09:24:45;;;;;;;2.28;0.40;;;14.60;74.20;;;;;;5037263;28;20018;-91
2023/05/16 09:27:12;;;;;;;4.88;0.40;;;14.70;74.10;;;;;;5019153;28;20036;-91
2023/05/16 09:29:43;;;;;;;2.95;0.40;;;14.80;73.60;;;;;;5020202;28;20025;-89
2023/05/16 09:32:14;;;;;;;3.22;0.25;;;14.90;73.20;;;;;;5036841;28;20014;-90
2023/05/16 09:34:44;;;;;;;2.50;0.30;;;15.00;72.80;;;;;;5022840;28;20048;-88
2023/05/16 09:37:11;;;;;;;2.90;0.40;;;15.10;72.50;;;;;;5040699;28;20021;-91
2023/05/16 09:39:49;;;;;;;2.47;0.30;;;15.20;72.00;;;;;;5043137;28;20037;-89
2023/05/16 09:42:16;;;;;;;1.85;0.22;;;15.30;71.50;;;;;;5055245;28;20064;-85
2023/05/16 09:44:48;;;;;;;3.47;0.50;;;15.40;71.30;;;;;;5037269;28;20021;-90
2023/05/16 09:47:16;;;;;;;3.92;0.30;;;15.50;70.70;;;;;;5053197;28;20036;-90
2023/05/16 09:49:44;;;;;;;4.35;0.30;;;15.50;70.30;;;;;;5049966;28;20029;-90
2023/05/16 09:52:10;;;;;;;4.65;0.40;;;15.60;70.40;;;;;;5038537;28;20017;-90
2023/05/16 09:54:35;;;;;;;3.28;0.60;;;15.60;68.80;;;;;;5019021;28;20454;-91
2023/05/16 09:57:01;;;;;;;3.75;0.52;;;15.60;68.90;;;;;;5036886;28;20021;-90
2023/05/16 09:59:34;;;;;;;3.17;0.47;;;15.60;68.90;;;;;;5045983;28;20037;-88
2023/05/16 10:02:00;;;;;;;1.67;0.30;;;15.60;69.30;;;;;;5041860;28;20030;-91
2023/05/16 10:04:26;;;;;;;2.45;0.32;;;15.60;68.10;;;;;;5035977;28;20036;-93
2023/05/16 10:06:55;;;;;;;3.33;0.30;;;15.60;67.30;;;;;;5018808;28;20032;-91
2023/05/16 10:09:21;;;;;;;2.35;0.50;;;15.60;66.60;;;;;;5036712;28;20136;-90
2023/05/16 10:11:48;;;;;;;3.88;0.30;;;15.70;66.70;;;;;;5038203;28;20017;-91
2023/05/16 10:14:17;;;;;;;5.78;0.60;;;15.80;66.50;;;;;;5039108;28;20022;-90
2023/05/16 10:16:46;;;;;;;3.53;0.40;;;15.90;66.00;;;;;;5039232;28;20025;-91
2023/05/16 10:19:13;;;;;;;2.90;0.60;;;16.00;65.40;;;;;;5038732;28;20044;-92
2023/05/16 10:21:44;;;;;;;3.25;0.45;;;16.00;65.00;;;;;;5039081;28;20048;-89
2023/05/16 10:24:15;;;;;;;2.60;0.25;;;16.10;65.10;;;;;;5039595;28;20044;-90
2023/05/16 10:26:40;;;;;;;1.83;0.22;;;16.10;64.50;;;;;;5037944;28;20033;-90
2023/05/16 10:29:06;;;;;;;1.48;0.30;;;16.20;64.20;;;;;;5021069;28;20025;-91
2023/05/16 10:31:32;;;;;;;2.70;0.40;;;16.20;63.90;;;;;;5020742;28;20044;-91
2023/05/16 10:33:58;;;;;;;2.30;0.30;;;16.40;63.70;;;;;;5036923;28;20033;-90
2023/05/16 10:36:24;;;;;;;2.25;0.57;;;16.50;63.50;;;;;;5021935;28;20021;-90
2023/05/16 10:38:50;;;;;;;3.70;0.43;;;16.70;63.20;;;;;;5039111;28;20481;-92
2023/05/16 10:41:17;;;;;;;4.32;0.40;;;16.90;62.90;;;;;;5021430;28;20021;-91
2023/05/16 10:43:54;;;;;;;2.60;0.25;;;17.00;62.50;;;;;;5038693;28;20018;-93
2023/05/16 10:46:22;;;;;;;3.42;0.40;;;17.00;62.20;;;;;;5039466;28;20013;-89
2023/05/16 10:48:48;;;;;;;3.45;0.40;;;17.00;62.00;;;;;;5020064;28;20022;-91
2023/05/16 10:51:35;;;;;;;2.22;0.47;;;17.10;61.70;;;;;;5036870;28;20044;-90
2023/05/16 10:54:14;;;;;;;2.45;0.50;;;17.10;61.00;;;;;;5038346;28;20037;-90
2023/05/16 10:56:39;;;;;;;3.97;0.38;;;17.10;61.00;;;;;;5037040;28;20112;-92
2023/05/16 10:59:25;;;;;;;1.13;0.30;;;17.20;60.90;;;;;;5036821;28;20072;-92
2023/05/16 11:01:55;;;;;;;2.13;0.30;;;17.40;60.10;;;;;;5038073;28;20064;-91
2023/05/16 11:04:20;;;;;;;1.55;0.30;;;17.60;60.00;;;;;;5038175;28;20021;-92
2023/05/16 11:06:51;;;;;;;4.35;0.40;;;17.80;59.20;;;;;;5039409;28;20029;-88
2023/05/16 11:09:22;;;;;;;3.03;0.40;;;17.80;58.40;;;;;;5043528;28;20147;-91
2023/05/16 11:11:51;;;;;;;2.55;0.40;;;17.90;58.10;;;;;;5046921;28;20029;-88
2023/05/16 11:14:37;;;;;;;3.72;0.40;;;18.00;57.80;;;;;;5043862;28;20017;-91
2023/05/16 11:17:13;;;;;;;4.30;0.55;;;17.90;57.70;;;;;;5039793;28;20017;-92
2023/05/16 11:19:46;;;;;;;6.20;1.10;;;17.80;57.90;;;;;;5037514;28;20100;-93
2023/05/16 11:22:18;;;;;;;;;;;17.80;58.10;;;;;;5038140;28;20049;-93
2023/05/16 11:24:51;;;;;;;2.97;0.40;;;17.90;58.20;;;;;;5037751;28;19905;-93
2023/05/16 11:27:22;;;;;;;3.77;0.40;;;18.00;58.50;;;;;;5037018;28;20535;-91
2023/05/16 11:29:48;;;;;;;3.70;0.60;;;18.20;58.20;;;;;;5020142;28;20557;-94
2023/05/16 11:32:17;;;;;;;3.95;0.40;;;18.30;58.00;;;;;;5036870;28;20064;-92
2023/05/16 11:34:44;;;;;;;3.08;0.35;;;18.50;57.40;;;;;;5034593;28;20465;-87
2023/05/16 11:37:10;;;;;;;1.88;0.40;;;18.50;57.00;;;;;;5038810;28;20050;-92
2023/05/16 11:39:36;;;;;;;3.47;0.40;;;18.50;56.80;;;;;;5055362;28;20469;-91
2023/05/16 11:42:02;;;;;;;2.75;0.25;;;18.50;56.60;;;;;;5056858;28;20029;-91
2023/05/16 11:44:28;;;;;;;2.55;0.40;;;18.50;56.20;;;;;;5056310;28;20024;-92
2023/05/16 11:46:53;;;;;;;4.95;0.80;;;18.50;56.10;;;;;;5056327;28;20025;-91
2023/05/16 11:49:19;;;;;;;4.10;0.55;;;18.40;55.90;;;;;;5062309;28;20021;-89
2023/05/16 11:51:45;;;;;;;4.43;0.70;;;18.40;55.70;;;;;;5062749;28;20396;-91
2023/05/16 11:54:14;;;;;;;1.95;0.45;;;18.30;55.60;;;;;;5043910;28;20071;-92
2023/05/16 11:56:40;;;;;;;4.18;0.50;;;18.30;55.80;;;;;;5072678;28;20441;-92
2023/05/16 11:59:06;;;;;;;2.67;0.50;;;18.20;55.90;;;;;;5056774;28;20041;-93
2023/05/16 12:01:37;;;;;;;2.45;0.40;;;18.20;55.90;;;;;;5055691;28;20090;-92
2023/05/16 12:04:13;;;;;;;2.83;0.43;;;18.20;55.70;;;;;;5055775;28;20415;-93
2023/05/16 12:06:42;;;;;;;2.15;0.40;;;18.40;55.80;;;;;;5058248;28;20147;-91
2023/05/16 12:09:12;;;;;;;2.47;0.55;;;18.50;55.60;;;;;;5064215;28;20049;-92
2023/05/16 12:11:39;;;;;;;3.08;0.57;;;18.60;55.10;;;;;;5066190;28;20009;-91
2023/05/16 12:14:09;;;;;;;4.03;0.57;;;18.70;55.60;;;;;;5061621;28;20457;-91
2023/05/16 12:16:37;;;;;;;4.68;0.57;;;18.70;54.80;;;;;;5065190;28;20033;-93
2023/05/16 12:19:05;;;;;;;3.33;0.43;;;18.70;54.90;;;;;;5043530;28;20037;-92
2023/05/16 12:21:31;;;;;;;10.35;0.75;;;18.70;54.70;;;;;;5056127;28;20059;-94
2023/05/16 12:23:57;;;;;;;4.80;0.50;;;18.70;54.70;;;;;;5038594;28;20025;-91
2023/05/16 12:26:29;;;;;;;4.53;0.52;;;18.80;54.60;;;;;;5054904;28;20024;-92
2023/05/16 12:29:04;;;;;;;2.17;0.40;;;18.80;54.70;;;;;;5054756;28;20033;-94
2023/05/16 12:31:34;;;;;;;2.38;0.40;;;18.90;54.60;;;;;;5038472;28;20067;-91
2023/05/16 12:34:00;;;;;;;3.53;0.38;;;19.00;54.30;;;;;;5053785;28;20024;-92
2023/05/16 12:36:30;;;;;;;3.30;0.40;;;19.00;53.90;;;;;;5055285;28;20025;-91
2023/05/16 12:39:01;;;;;;;3.53;0.80;;;19.10;53.80;;;;;;5057100;28;20136;-92
2023/05/16 12:41:26;;;;;;;3.47;0.55;;;19.10;53.50;;;;;;5055782;28;20028;-90
2023/05/16 12:44:05;;;;;;;3.55;0.57;;;19.00;53.30;;;;;;5056181;28;20025;-89
2023/05/16 12:46:31;;;;;;;3.60;0.50;;;18.90;53.20;;;;;;5055841;28;20036;-91
2023/05/16 12:49:06;;;;;;;3.50;0.60;;;18.70;53.00;;;;;;5055660;28;20456;-92